M I D A S
Marine Information and Data Acquisition System
Tripno 1200 of the Zeeleeuw from 2006-12-18 07:49:54 to 2006-12-18 13:37:40
Back to CruiseResearch ActivitiesStationsMapUnderway DataData graphs

EquipmentUnitsComment
TimeDGPSUTC
LatitudeDGPSDM.mWGS84
LongitudeDGPSDM.mWGS84
HeadingGyrodeg 
SOGDGPSknotsSpeed over ground
COGDGPSdegCourse over ground
DepthEcho soundermeters200 kHz
Missing or incorrect values are displayed as -999
Navigation data collected by the RV Zeeleeuw from 2006-12-18 07:00:44 to 2006-12-18 13:42:36
Time Latitude Longitude Heading SOG COG Depth
2006-12-18 07:50:58 51°13.62 2°56.02 118.5 3.1 301 -999
2006-12-18 07:51:58 51°13.64 2°55.943 111.1 0.8 283 -999
2006-12-18 07:52:58 51°13.659 2°55.886 131.3 3.9 306 -999
2006-12-18 07:53:58 51°13.708 2°55.791 135.4 4.9 312 10.9
2006-12-18 07:54:58 51°13.755 2°55.703 129.9 2.2 307 10
2006-12-18 07:55:58 51°13.758 2°55.712 84.6 0.1 64 9.3
2006-12-18 07:56:58 51°13.754 2°55.676 71.8 0.3 288 11.2
2006-12-18 07:57:58 51°13.769 2°55.69 18.1 0.5 195 9.8
2006-12-18 07:58:58 51°13.771 2°55.68 343.3 2.9 336 -999
2006-12-18 07:59:57 51°13.85 2°55.623 340.1 6.9 336 11
2006-12-18 08:00:57 51°13.964 2°55.536 340.3 7.9 335 10.9
2006-12-18 08:01:58 51°14.089 2°55.443 340.1 8 334 11.4
2006-12-18 08:02:58 51°14.197 2°55.345 332.1 7.4 325 -999
2006-12-18 08:03:57 51°14.305 2°55.178 317.8 10.4 310 10.9
2006-12-18 08:04:56 51°14.44 2°54.97 333.3 12.5 328 10.8
2006-12-18 08:05:55 51°14.616 2°54.78 332.2 13.4 325 9.7
2006-12-18 08:06:54 51°14.799 2°54.573 330.9 13.9 324 9.6
2006-12-18 08:07:54 51°14.988 2°54.362 331.9 13.6 326 8.8
2006-12-18 08:08:54 51°15.178 2°54.163 332.4 13.8 326 9.5
2006-12-18 08:09:54 51°15.373 2°53.965 335 14 327 10.1
2006-12-18 08:10:54 51°15.569 2°53.765 335 14 328 10.8
2006-12-18 08:11:54 51°15.767 2°53.57 335.6 13.8 329 11.2
2006-12-18 08:12:54 51°15.963 2°53.383 336.4 13.7 330 11.9
2006-12-18 08:13:54 51°16.16 2°53.198 336.2 13.6 330 12.2
2006-12-18 08:14:54 51°16.361 2°53.026 338.3 13.7 332 12.5
2006-12-18 08:15:54 51°16.563 2°52.858 338.5 13.7 332 12.1
2006-12-18 08:16:54 51°16.762 2°52.687 338.3 13.4 331 10.3
2006-12-18 08:17:54 51°16.973 2°52.575 354.9 13.5 350 10.6
2006-12-18 08:18:54 51°17.194 2°52.526 359.6 13.4 354 10.4
2006-12-18 08:19:54 51°17.418 2°52.491 2.3 13.5 356 10.7
2006-12-18 08:20:54 51°17.642 2°52.489 8.4 13.4 2 10.8
2006-12-18 08:21:54 51°17.865 2°52.517 13.8 13.4 8 10.8
2006-12-18 08:22:54 51°18.084 2°52.591 24.1 13.5 19 11.2
2006-12-18 08:23:54 51°18.278 2°52.769 44.7 13.6 41 11.7
2006-12-18 08:24:54 51°18.446 2°53.01 47.1 13.5 42 11.8
2006-12-18 08:25:54 51°18.617 2°53.247 45.3 13.6 41 12.1
2006-12-18 08:26:54 51°18.79 2°53.482 45.5 13.5 41 12
2006-12-18 08:27:54 51°18.962 2°53.72 45 13.7 41 12.6
2006-12-18 08:28:54 51°19.135 2°53.957 45 13.6 41 12.7
2006-12-18 08:29:54 51°19.308 2°54.192 45 13.6 41 12.9
2006-12-18 08:30:54 51°19.481 2°54.428 44.2 13.7 40 13.1
2006-12-18 08:31:54 51°19.65 2°54.671 47.4 13.7 43 13.2
2006-12-18 08:32:54 51°19.816 2°54.922 47 13.7 43 13.4
2006-12-18 08:33:54 51°19.983 2°55.172 46.7 13.7 43 13.5
2006-12-18 08:34:54 51°20.148 2°55.425 47.4 13.7 44 13.6
2006-12-18 08:35:54 51°20.314 2°55.676 47.3 13.7 43 13.6
2006-12-18 08:36:54 51°20.477 2°55.929 47.6 13.7 44 13.9
2006-12-18 08:37:54 51°20.642 2°56.184 47.7 13.8 44 13.9
2006-12-18 08:38:54 51°20.807 2°56.439 47.8 13.7 44 13.9
2006-12-18 08:39:54 51°20.97 2°56.694 47.9 13.8 47 14.1
2006-12-18 08:40:54 51°21.102 2°56.995 60.5 14 58 14.3
2006-12-18 08:41:54 51°21.228 2°57.305 59.6 13.9 56 14.1
2006-12-18 08:42:54 51°21.355 2°57.615 59.7 14.1 57 14.2
2006-12-18 08:43:54 51°21.488 2°57.918 55.2 13.1 52 14.1
2006-12-18 08:44:54 51°21.588 2°58.119 48.5 7.8 46 14.3
2006-12-18 08:45:54 51°21.662 2°58.199 18.8 3.2 21 14.4
2006-12-18 08:46:54 51°21.677 2°58.215 30.3 0.4 44 14.5
2006-12-18 08:47:54 51°21.68 2°58.229 39.4 0.6 82 14.5
2006-12-18 08:48:54 51°21.686 2°58.247 40.6 0.8 53 14.4
2006-12-18 08:49:54 51°21.693 2°58.267 39.6 0.8 65 14.6
2006-12-18 08:50:54 51°21.698 2°58.285 40.6 0.8 74 14.6
2006-12-18 08:51:54 51°21.702 2°58.304 43.4 0.7 61 14.4
2006-12-18 08:52:54 51°21.728 2°58.322 355.5 2.5 355 14.6
2006-12-18 08:53:54 51°21.755 2°58.269 284.2 3 275 14.7
2006-12-18 08:54:54 51°21.73 2°58.196 235.1 3.4 226 14.8
2006-12-18 08:55:54 51°21.694 2°58.148 225.7 2.2 219 14.8
2006-12-18 08:56:54 51°21.682 2°58.141 240.6 0.4 146 14.8
2006-12-18 08:57:54 51°21.677 2°58.146 244.2 0.3 146 14.8
2006-12-18 08:58:55 51°21.672 2°58.151 253.3 0.4 146 14.7
2006-12-18 08:59:54 51°21.669 2°58.155 264.1 0.3 127 14.8
2006-12-18 09:00:54 51°21.668 2°58.159 272.2 0.1 76 14.8
2006-12-18 09:01:54 51°21.668 2°58.164 280.7 0.2 50 14.7
2006-12-18 09:02:55 51°21.669 2°58.171 289.2 0.3 53 14.8
2006-12-18 09:03:54 51°21.671 2°58.179 294.4 0.3 67 14.9
2006-12-18 09:04:54 51°21.672 2°58.188 295.8 0.4 69 15
2006-12-18 09:05:54 51°21.675 2°58.199 293.3 0.5 73 14.7
2006-12-18 09:06:54 51°21.676 2°58.211 290.7 0.6 64 14.8
2006-12-18 09:07:54 51°21.68 2°58.224 292.1 0.6 64 14.8
2006-12-18 09:08:54 51°21.684 2°58.226 291.9 1 292 14.9
2006-12-18 09:09:54 51°21.691 2°58.175 271.4 2.2 267 15.1
2006-12-18 09:10:54 51°21.691 2°58.136 273.6 0.6 282 15
2006-12-18 09:11:54 51°21.696 2°58.126 294.6 0.5 337 15.1
2006-12-18 09:12:55 51°21.705 2°58.124 303.2 0.5 353 15.3
2006-12-18 09:13:55 51°21.714 2°58.126 304.1 0.4 18 15.1
2006-12-18 09:14:55 51°21.721 2°58.131 299.3 0.4 23 15.3
2006-12-18 09:15:55 51°21.728 2°58.138 294.9 0.5 47 15.2
2006-12-18 09:16:55 51°21.734 2°58.147 292 0.5 46 15.3
2006-12-18 09:17:54 51°21.74 2°58.158 290.9 0.6 50 15.4
2006-12-18 09:18:54 51°21.747 2°58.165 287 0.7 320 15.3
2006-12-18 09:19:54 51°21.75 2°58.127 259.4 2 254 15.4
2006-12-18 09:20:54 51°21.739 2°58.098 246.9 0.6 201 15.3
2006-12-18 09:21:54 51°21.737 2°58.092 256.5 0.2 251 15.3
2006-12-18 09:22:54 51°21.737 2°58.089 260.5 0.1 348 15.4
2006-12-18 09:23:54 51°21.739 2°58.091 263.7 0.2 55 15.6
2006-12-18 09:24:55 51°21.743 2°58.094 267.8 0.3 20 15.7
2006-12-18 09:25:54 51°21.747 2°58.1 271.4 0.5 38 15.2
2006-12-18 09:26:54 51°21.751 2°58.108 273 0.4 44 15.7
2006-12-18 09:27:54 51°21.757 2°58.117 275.3 0.5 47 15.4
2006-12-18 09:28:54 51°21.762 2°58.129 278.2 0.7 41 15.7
2006-12-18 09:29:55 51°21.769 2°58.141 279.7 0.6 45 15.2
2006-12-18 09:30:54 51°21.776 2°58.155 279.4 0.8 43 15.7
2006-12-18 09:31:54 51°21.783 2°58.17 280.5 0.8 45 15.7
2006-12-18 09:32:54 51°21.791 2°58.185 280.4 1 43 15.7
2006-12-18 09:33:54 51°21.799 2°58.202 278.2 0.7 60 15.8
2006-12-18 09:34:54 51°21.806 2°58.216 272.1 0.2 356 15.9
2006-12-18 09:35:54 51°21.8 2°58.197 233.7 1.5 210 15.8
2006-12-18 09:36:54 51°21.769 2°58.172 225 2.5 210 15.7
2006-12-18 09:37:54 51°21.733 2°58.135 225.7 2.3 202 15.7
2006-12-18 09:38:54 51°21.715 2°58.125 236.7 0.4 74 15.6
2006-12-18 09:39:54 51°21.718 2°58.139 261.2 0.6 48 15.6
2006-12-18 09:40:55 51°21.725 2°58.154 277.2 0.8 48 15.7
2006-12-18 09:41:54 51°21.735 2°58.17 285.2 0.8 47 15.4
2006-12-18 09:42:54 51°21.745 2°58.188 286.4 0.9 48 15.7
2006-12-18 09:43:54 51°21.756 2°58.207 285 1 44 15.5
2006-12-18 09:44:54 51°21.766 2°58.226 288 1 49 15.6
2006-12-18 09:45:54 51°21.777 2°58.239 278.8 0.6 342 15.8
2006-12-18 09:46:55 51°21.771 2°58.224 226.7 1.2 204 15.9
2006-12-18 09:47:54 51°21.736 2°58.211 212.1 2.7 191 15.7
2006-12-18 09:48:54 51°21.698 2°58.177 227.5 2.2 213 15.6
2006-12-18 09:49:56 51°21.692 2°58.167 264.6 0.4 20 15.6
2006-12-18 09:50:55 51°21.703 2°58.173 284.4 0.8 23 15.6
2006-12-18 09:51:56 51°21.717 2°58.185 288.3 1 30 15.5
2006-12-18 09:52:56 51°21.73 2°58.198 287.4 0.9 36 15.9
2006-12-18 09:53:56 51°21.743 2°58.215 287.4 1 41 15.8
2006-12-18 09:54:56 51°21.756 2°58.234 287.4 1.1 41 15.7
2006-12-18 09:55:56 51°21.771 2°58.256 286.1 1.1 51 15.7
2006-12-18 09:56:56 51°21.784 2°58.275 285.3 1.1 6 15.7
2006-12-18 09:57:55 51°21.78 2°58.236 237 2.7 232 15.9
2006-12-18 09:58:56 51°21.738 2°58.189 225.3 2.7 207 15.7
2006-12-18 09:59:56 51°21.712 2°58.157 235.9 1.5 220 15.7
2006-12-18 10:00:57 51°21.7 2°58.142 236.2 0.3 179 15.9
2006-12-18 10:01:56 51°21.702 2°58.151 247.1 0.5 67 15.7
2006-12-18 10:02:57 51°21.708 2°58.16 254.7 0.6 24 15.8
2006-12-18 10:03:57 51°21.712 2°58.165 246.7 0.2 27 15.9
2006-12-18 10:04:57 51°21.712 2°58.167 240.4 0.1 127 15.8
2006-12-18 10:05:57 51°21.71 2°58.17 237.6 0.3 145 15.8
2006-12-18 10:06:57 51°21.708 2°58.173 237.3 0.2 135 15.7
2006-12-18 10:07:57 51°21.707 2°58.175 239.4 0.2 137 15.9
2006-12-18 10:08:57 51°21.706 2°58.175 242.9 -999 195 15.8
2006-12-18 10:09:58 51°21.707 2°58.175 245.3 0.1 75 15.9
2006-12-18 10:10:58 51°21.711 2°58.181 244.5 0.5 36 15.8
2006-12-18 10:11:58 51°21.719 2°58.194 247.6 0.8 38 16
2006-12-18 10:12:58 51°21.729 2°58.212 253.2 1 42 15.8
2006-12-18 10:13:58 51°21.74 2°58.232 254.8 1.1 53 15.8
2006-12-18 10:14:58 51°21.753 2°58.254 255 1.1 48 15.9
2006-12-18 10:15:58 51°21.763 2°58.273 245.8 0.7 69 15.8
2006-12-18 10:16:58 51°21.77 2°58.287 243.3 0.6 77 15.9
2006-12-18 10:17:58 51°21.771 2°58.29 237.2 0.8 224 15.9
2006-12-18 10:18:58 51°21.75 2°58.262 231.9 2.2 224 15.9
2006-12-18 10:19:58 51°21.722 2°58.211 239.1 2.8 229 15.8
2006-12-18 10:20:59 51°21.692 2°58.158 232.2 2 225 16
2006-12-18 10:21:59 51°21.68 2°58.152 237.6 0.2 129 15.9
2006-12-18 10:22:59 51°21.682 2°58.154 247 0.3 3 16
2006-12-18 10:23:59 51°21.684 2°58.156 238.4 0.1 14 15.8
2006-12-18 10:24:59 51°21.685 2°58.16 235.9 0.1 57 15.9
2006-12-18 10:25:59 51°21.683 2°58.164 232 0.1 116 15.8
2006-12-18 10:26:59 51°21.682 2°58.168 238.1 0.2 110 15.9
2006-12-18 10:27:59 51°21.684 2°58.167 247.9 0.3 340 15.9
2006-12-18 10:28:59 51°21.69 2°58.165 255.5 0.3 355 15.7
2006-12-18 10:29:59 51°21.696 2°58.165 246.5 0.2 357 15.9
2006-12-18 10:30:59 51°21.698 2°58.168 238.6 0.3 354 15.9
2006-12-18 10:31:59 51°21.698 2°58.173 236 0.2 113 15.8
2006-12-18 10:32:59 51°21.698 2°58.176 236.6 0.2 71 15.9
2006-12-18 10:33:59 51°21.699 2°58.179 238 0.1 64 15.8
2006-12-18 10:34:59 51°21.7 2°58.183 237 0.2 32 15.9
2006-12-18 10:35:59 51°21.7 2°58.188 234.7 0.2 89 15.8
2006-12-18 10:36:59 51°21.701 2°58.192 233.6 0.2 56 15.9
2006-12-18 10:37:59 51°21.701 2°58.198 234.7 0.2 45 15.9
2006-12-18 10:38:59 51°21.696 2°58.179 244.3 3.2 241 15.9
2006-12-18 10:39:59 51°21.631 2°58.033 236 8.4 237 15.8
2006-12-18 10:40:59 51°21.546 2°57.836 240.2 9.1 237 15.9
2006-12-18 10:41:59 51°21.484 2°57.673 240.4 5.3 233 15.7
2006-12-18 10:42:59 51°21.447 2°57.591 235 2.8 225 15.9
2006-12-18 10:43:59 51°21.427 2°57.547 240 1.6 239 15.8
2006-12-18 10:44:59 51°21.421 2°57.515 249.3 1.1 256 16.1
2006-12-18 10:45:59 51°21.421 2°57.493 244.6 0.6 250 16.1
2006-12-18 10:46:59 51°21.418 2°57.482 236.6 0.3 247 16.2
2006-12-18 10:47:59 51°21.417 2°57.476 236.1 0.2 237 15.9
2006-12-18 10:48:59 51°21.417 2°57.474 235.7 0.1 284 16
2006-12-18 10:49:59 51°21.417 2°57.474 235.5 -999 15 16.1
2006-12-18 10:50:59 51°21.419 2°57.474 237.2 0.1 8 16
2006-12-18 10:51:59 51°21.421 2°57.475 236.8 0.1 350 16.1
2006-12-18 10:52:59 51°21.423 2°57.477 237.8 0.2 16 16.1
2006-12-18 10:53:58 51°21.425 2°57.479 238.4 0.2 27 16.2
2006-12-18 10:54:57 51°21.429 2°57.48 240.1 0.3 355 16
2006-12-18 10:55:56 51°21.433 2°57.48 240.9 0.2 32 16
2006-12-18 10:56:55 51°21.439 2°57.479 240.2 0.2 49 16
2006-12-18 10:57:55 51°21.443 2°57.48 237.1 0.3 10 16.1
2006-12-18 10:58:55 51°21.447 2°57.483 233.7 0.2 61 16.1
2006-12-18 10:59:55 51°21.45 2°57.489 231.3 0.3 52 16.2
2006-12-18 11:00:55 51°21.451 2°57.496 229.5 0.3 45 16.2
2006-12-18 11:01:55 51°21.454 2°57.502 233.8 0.3 71 16
2006-12-18 11:02:55 51°21.457 2°57.506 239.4 0.3 25 15.9
2006-12-18 11:03:55 51°21.463 2°57.509 245.8 0.4 8 16.2
2006-12-18 11:04:55 51°21.47 2°57.506 249.9 0.5 307 16.1
2006-12-18 11:05:55 51°21.47 2°57.491 236.9 0.7 223 16.2
2006-12-18 11:06:55 51°21.461 2°57.472 233.5 0.8 220 16.2
2006-12-18 11:07:55 51°21.455 2°57.458 232.4 0.5 244 16.1
2006-12-18 11:08:55 51°21.449 2°57.452 235.1 0.2 231 16.3
2006-12-18 11:09:55 51°21.45 2°57.446 239.3 0.2 299 16
2006-12-18 11:10:55 51°21.452 2°57.443 243.6 0.3 330 16.1
2006-12-18 11:11:55 51°21.458 2°57.44 247.5 0.4 341 16.1
2006-12-18 11:12:55 51°21.465 2°57.437 246 0.4 345 16.3
2006-12-18 11:13:55 51°21.472 2°57.437 245.3 0.5 357 16.1
2006-12-18 11:14:55 51°21.48 2°57.439 245.1 0.6 32 16.4
2006-12-18 11:15:55 51°21.491 2°57.448 247.5 0.8 38 16.2
2006-12-18 11:16:55 51°21.503 2°57.461 248.8 1 31 16.3
2006-12-18 11:17:55 51°21.517 2°57.477 252.1 1 39 16.2
2006-12-18 11:18:55 51°21.532 2°57.495 256.9 1.2 30 16.2
2006-12-18 11:19:55 51°21.547 2°57.51 259.9 0.9 22 16.2
2006-12-18 11:20:55 51°21.553 2°57.478 252.5 2.6 259 16.3
2006-12-18 11:21:55 51°21.525 2°57.405 233.6 3.2 230 16.4
2006-12-18 11:22:55 51°21.52 2°57.379 260.4 1.2 300 16.3
2006-12-18 11:23:55 51°21.532 2°57.365 264.3 0.8 338 16.6
2006-12-18 11:24:55 51°21.541 2°57.36 244.4 0.4 3 16.5
2006-12-18 11:25:55 51°21.547 2°57.366 226.8 0.5 60 16.4
2006-12-18 11:26:55 51°21.55 2°57.379 219.9 0.6 73 16.5
2006-12-18 11:27:55 51°21.552 2°57.394 215.7 0.6 71 16.5
2006-12-18 11:28:55 51°21.554 2°57.412 212.6 0.7 86 16.4
2006-12-18 11:29:55 51°21.555 2°57.432 209.9 0.8 86 16.4
2006-12-18 11:30:55 51°21.544 2°57.444 206.6 1.9 189 16.3
2006-12-18 11:31:55 51°21.5 2°57.406 229.3 3.9 220 16.4
2006-12-18 11:32:55 51°21.465 2°57.362 230.4 0.5 243 16.2
2006-12-18 11:33:55 51°21.464 2°57.352 243.7 0.3 236 16.2
2006-12-18 11:34:55 51°21.464 2°57.344 235.3 0.3 196 16.1
2006-12-18 11:35:55 51°21.461 2°57.343 225 0.3 162 16.2
2006-12-18 11:36:55 51°21.456 2°57.349 214.9 0.4 121 16.2
2006-12-18 11:37:55 51°21.453 2°57.36 205.4 0.7 117 16.1
2006-12-18 11:38:55 51°21.448 2°57.376 204.8 0.8 113 16
2006-12-18 11:39:55 51°21.444 2°57.391 211.3 0.6 106 16.2
2006-12-18 11:40:55 51°21.443 2°57.404 221.3 0.3 68 16
2006-12-18 11:41:55 51°21.445 2°57.411 232.9 0.3 23 15.9
2006-12-18 11:42:55 51°21.451 2°57.415 244.8 0.6 354 16.1
2006-12-18 11:43:55 51°21.459 2°57.416 248.1 0.5 5 15.9
2006-12-18 11:44:55 51°21.467 2°57.416 244.5 0.5 357 16.1
2006-12-18 11:45:55 51°21.474 2°57.417 234.4 0.4 16 16
2006-12-18 11:46:55 51°21.478 2°57.425 216.3 0.5 69 16.2
2006-12-18 11:47:55 51°21.48 2°57.439 207.3 0.6 86 16
2006-12-18 11:48:55 51°21.48 2°57.456 204.2 0.6 87 16.1
2006-12-18 11:49:55 51°21.48 2°57.474 204.7 0.7 88 15.9
2006-12-18 11:50:55 51°21.48 2°57.491 206.1 0.6 95 15.9
2006-12-18 11:51:55 51°21.48 2°57.505 211.7 0.5 89 16
2006-12-18 11:52:55 51°21.482 2°57.515 219.2 0.3 71 15.9
2006-12-18 11:53:55 51°21.484 2°57.523 223.2 0.4 78 15.9
2006-12-18 11:54:55 51°21.471 2°57.518 208.3 1.9 191 15.9
2006-12-18 11:55:55 51°21.427 2°57.473 226.5 3.5 222 15.7
2006-12-18 11:56:55 51°21.41 2°57.452 240.1 0.1 331 15.7
2006-12-18 11:57:55 51°21.414 2°57.445 247.9 0.5 323 15.8
2006-12-18 11:58:55 51°21.417 2°57.442 228.9 0.2 344 15.7
2006-12-18 11:59:55 51°21.418 2°57.444 219.1 -999 319 15.6
2006-12-18 12:00:55 51°21.416 2°57.446 222 0.1 240 15.9
2006-12-18 12:01:55 51°21.415 2°57.444 232.6 0.1 278 15.7
2006-12-18 12:02:55 51°21.417 2°57.438 239.4 0.4 288 15.8
2006-12-18 12:03:55 51°21.419 2°57.431 238.1 0.3 311 15.8
2006-12-18 12:04:55 51°21.422 2°57.427 234.2 0.2 336 15.7
2006-12-18 12:05:55 51°21.426 2°57.427 230.2 0.3 356 15.8
2006-12-18 12:06:55 51°21.43 2°57.43 228.2 0.3 57 15.7
2006-12-18 12:07:55 51°21.434 2°57.435 229.5 0.4 55 15.9
2006-12-18 12:08:55 51°21.439 2°57.441 229.6 0.4 26 15.9
2006-12-18 12:09:55 51°21.445 2°57.446 231.2 0.4 33 15.8
2006-12-18 12:10:55 51°21.452 2°57.45 233.3 0.5 14 15.6
2006-12-18 12:11:55 51°21.459 2°57.456 235.1 0.5 31 15.8
2006-12-18 12:12:55 51°21.467 2°57.461 238 0.5 15 15.8
2006-12-18 12:13:55 51°21.476 2°57.465 243.5 0.6 12 15.8
2006-12-18 12:14:55 51°21.486 2°57.469 249 0.7 13 15.9
2006-12-18 12:15:55 51°21.497 2°57.474 250.8 0.8 9 15.8
2006-12-18 12:16:55 51°21.506 2°57.473 245.4 0.6 283 15.8
2006-12-18 12:17:55 51°21.51 2°57.419 274.3 3.2 293 15.9
2006-12-18 12:18:55 51°21.547 2°57.37 308.7 1.5 354 16.2
2006-12-18 12:19:55 51°21.566 2°57.376 288 1.1 -999 16.3
2006-12-18 12:20:55 51°21.579 2°57.37 252.7 0.4 343 16.3
2006-12-18 12:21:55 51°21.585 2°57.368 229.7 0.1 1 16.2
2006-12-18 12:22:55 51°21.586 2°57.372 207.1 0.2 108 16.3
2006-12-18 12:23:55 51°21.583 2°57.382 197.7 0.5 126 16.2
2006-12-18 12:24:55 51°21.577 2°57.396 190.7 0.7 154 16.2
2006-12-18 12:25:55 51°21.533 2°57.394 207.9 3.9 205 16
2006-12-18 12:26:55 51°21.512 2°57.343 231.9 0.3 254 16
2006-12-18 12:27:55 51°21.511 2°57.346 207.7 0.3 138 15.9
2006-12-18 12:28:55 51°21.508 2°57.348 221.1 0.2 253 15.9
2006-12-18 12:29:55 51°21.509 2°57.344 238.8 0.2 295 16.1
2006-12-18 12:30:55 51°21.51 2°57.34 220.5 0.1 107 15.9
2006-12-18 12:31:55 51°21.508 2°57.346 203.2 0.3 127 15.8
2006-12-18 12:32:55 51°21.503 2°57.354 203.1 0.4 141 16
2006-12-18 12:33:55 51°21.497 2°57.36 207.8 0.5 143 15.8
2006-12-18 12:34:55 51°21.492 2°57.363 211.3 0.4 168 15.6
2006-12-18 12:35:55 51°21.488 2°57.361 226 0.2 243 15.8
2006-12-18 12:36:55 51°21.488 2°57.357 231.1 0.3 354 15.6
2006-12-18 12:37:55 51°21.496 2°57.361 248.2 0.7 29 15.8
2006-12-18 12:38:55 51°21.51 2°57.374 262.2 0.9 9 15.8
2006-12-18 12:39:55 51°21.51 2°57.358 227.9 3.1 227 15.9
2006-12-18 12:40:55 51°21.429 2°57.223 229.2 10.4 223 15.5
2006-12-18 12:41:55 51°21.293 2°56.989 226.4 12.7 225 15.3
2006-12-18 12:42:55 51°21.144 2°56.748 227.8 12.7 229 15.3
2006-12-18 12:43:55 51°20.994 2°56.51 226 12.8 224 15.1
2006-12-18 12:44:55 51°20.843 2°56.273 226.5 12.7 225 15.1
2006-12-18 12:45:56 51°20.691 2°56.027 227.9 12.6 225 14.9
2006-12-18 12:46:55 51°20.541 2°55.791 226.4 13 226 14.8
2006-12-18 12:47:55 51°20.391 2°55.549 227 13 226 14.6
2006-12-18 12:48:55 51°20.241 2°55.306 227.6 13 226 14.5
2006-12-18 12:49:55 51°20.09 2°55.065 226.1 12.9 224 14.4
2006-12-18 12:50:55 51°19.939 2°54.824 226.4 12.9 225 14.5
2006-12-18 12:51:55 51°19.787 2°54.582 227.1 13 225 14.2
2006-12-18 12:52:55 51°19.63 2°54.348 223.6 13 220 13.8
2006-12-18 12:53:55 51°19.47 2°54.117 224.5 13 224 13.7
2006-12-18 12:54:55 51°19.308 2°53.886 222.9 13.2 224 13.6
2006-12-18 12:55:55 51°19.149 2°53.655 224.7 13 223 13.5
2006-12-18 12:56:55 51°18.989 2°53.425 224 12.8 221 13.1
2006-12-18 12:57:55 51°18.83 2°53.195 224 12.8 224 13
2006-12-18 12:58:55 51°18.663 2°52.978 220.5 12.9 217 12.8
2006-12-18 12:59:55 51°18.488 2°52.779 217.7 12.7 213 12.6
2006-12-18 13:00:55 51°18.297 2°52.63 200.6 13.4 198 12.2
2006-12-18 13:01:55 51°18.085 2°52.559 192.9 13.1 188 12
2006-12-18 13:02:55 51°17.87 2°52.533 187.4 13.3 185 11.6
2006-12-18 13:03:55 51°17.654 2°52.503 188.7 13.4 187 11.5
2006-12-18 13:04:55 51°17.439 2°52.469 189.3 12.9 186 11.7
2006-12-18 13:05:55 51°17.222 2°52.434 190.5 12.8 186 11.3
2006-12-18 13:06:56 51°17.002 2°52.46 170.6 13.2 165 10.9
2006-12-18 13:07:55 51°16.796 2°52.562 167.3 13.2 162 11.2
2006-12-18 13:08:56 51°16.582 2°52.668 169 12.9 163 12.5
2006-12-18 13:09:55 51°16.375 2°52.762 170 13.2 165 13.1
2006-12-18 13:10:55 51°16.162 2°52.857 169.9 13 165 13.3
2006-12-18 13:11:55 51°15.946 2°52.947 169.7 13.3 165 13
2006-12-18 13:12:55 51°15.731 2°53.038 169.2 13.3 164 12.6
2006-12-18 13:13:55 51°15.516 2°53.127 169.6 13.3 166 11.9
2006-12-18 13:14:55 51°15.318 2°53.274 150.1 13.3 146 11.4
2006-12-18 13:15:56 51°15.134 2°53.482 148.2 13.2 145 10.9
2006-12-18 13:16:55 51°14.974 2°53.727 137.3 13.2 134 10.4
2006-12-18 13:17:55 51°14.83 2°53.969 136.5 11.3 129 10.6
2006-12-18 13:18:55 51°14.738 2°54.201 130.3 9.3 122 11.1
2006-12-18 13:19:55 51°14.65 2°54.381 134.8 7.9 129 11.3
2006-12-18 13:20:55 51°14.571 2°54.536 133.6 6.9 129 11.5
2006-12-18 13:21:55 51°14.511 2°54.669 134 5.5 130 11.7
2006-12-18 13:22:55 51°14.46 2°54.775 129.6 5.3 125 12.2
2006-12-18 13:23:55 51°14.4 2°54.905 131 7 128 11.5
2006-12-18 13:24:56 51°14.354 2°55.07 110.8 6.2 107 11.9
2006-12-18 13:25:55 51°14.307 2°55.192 132 5.3 130 12
2006-12-18 13:26:59 51°14.246 2°55.305 132 5.2 128 12.7
2006-12-18 13:27:59 51°14.183 2°55.389 154 4.9 153 12
2006-12-18 13:28:59 51°14.106 2°55.454 154.1 5.7 153 11.8
2006-12-18 13:29:59 51°14.014 2°55.517 157.6 6.1 154 11.3
2006-12-18 13:30:58 51°13.926 2°55.578 161.3 5.7 160 11.4
2006-12-18 13:31:57 51°13.842 2°55.633 157.7 5.4 154 11.1
2006-12-18 13:32:56 51°13.762 2°55.691 158.4 5.3 154 11.5
2006-12-18 13:33:56 51°13.691 2°55.771 137.7 5.1 132 11.5
2006-12-18 13:34:55 51°13.66 2°55.887 122.5 4.9 122 10.6
2006-12-18 13:35:56 51°13.619 2°55.995 121.4 4.3 115 10.9
2006-12-18 13:36:55 51°13.604 2°56.076 107.5 1.2 99 8.4